createdAt,value
2019-02-19T00:01:11.872Z,96844.86
2019-02-19T00:03:01.479Z,96844.48
2019-02-19T00:04:44.947Z,96847.61
2019-02-19T00:06:20.528Z,96849.16
2019-02-19T00:08:09.468Z,96858.31
2019-02-19T00:09:45.016Z,96854.52
2019-02-19T00:11:23.129Z,96854.55
2019-02-19T00:13:01.722Z,96853.75
2019-02-19T00:14:36.808Z,96854.23
2019-02-19T00:16:12.295Z,96854.05
2019-02-19T00:17:47.689Z,96851.39
2019-02-19T00:19:23.156Z,96853.91
2019-02-19T00:20:58.535Z,96847.98
2019-02-19T00:22:33.951Z,96848.96
2019-02-19T00:24:09.683Z,96853.02
2019-02-19T00:25:45.135Z,96851.66
2019-02-19T00:27:20.338Z,96853.30
2019-02-19T00:28:57.247Z,96853.09
2019-02-19T00:30:42.185Z,96854.14
2019-02-19T00:32:17.503Z,96851.44
2019-02-19T00:33:52.507Z,96851.08
2019-02-19T00:35:28.052Z,96848.25
2019-02-19T00:37:06.350Z,96853.78
2019-02-19T00:38:41.371Z,96855.33
2019-02-19T00:40:17.577Z,96854.16
2019-02-19T00:41:52.726Z,96863.61
2019-02-19T00:43:34.517Z,96860.73
2019-02-19T00:45:16.530Z,96869.19
2019-02-19T00:46:47.468Z,96867.08
2019-02-19T00:48:22.461Z,96861.98
2019-02-19T00:49:57.703Z,96863.53
2019-02-19T00:51:32.996Z,96861.04
2019-02-19T00:53:08.028Z,96854.34
2019-02-19T00:54:45.217Z,96854.66
2019-02-19T00:56:21.904Z,96849.83
2019-02-19T00:57:56.976Z,96861.48
2019-02-19T00:59:32.374Z,96851.45
2019-02-19T01:01:10.375Z,96855.43
2019-02-19T01:02:47.523Z,96857.34
2019-02-19T01:04:22.562Z,96853.80
2019-02-19T01:05:57.616Z,96855.02
2019-02-19T01:07:36.713Z,96852.45
2019-02-19T01:09:12.192Z,96847.03
2019-02-19T01:10:47.293Z,96848.75
2019-02-19T01:12:22.519Z,96843.53
2019-02-19T01:13:59.184Z,96847.08
2019-02-19T01:15:34.676Z,96843.63
2019-02-19T01:17:09.667Z,96842.65
2019-02-19T01:18:46.806Z,96840.24
2019-02-19T01:20:21.876Z,96844.72
2019-02-19T01:21:57.006Z,96836.79
2019-02-19T01:23:32.354Z,96837.33
2019-02-19T01:25:08.341Z,96837.54
2019-02-19T01:26:49.656Z,96832.13
2019-02-19T01:28:24.722Z,96835.79
2019-02-19T01:29:59.721Z,96836.30
2019-02-19T01:31:35.183Z,96842.72
2019-02-19T01:33:10.558Z,96837.25
2019-02-19T01:34:45.493Z,96832.95
2019-02-19T01:36:20.546Z,96836.06
2019-02-19T01:37:55.631Z,96843.88
2019-02-19T01:39:33.928Z,96835.18
2019-02-19T01:41:09.356Z,96835.31
2019-02-19T01:42:44.400Z,96836.66
2019-02-19T01:44:25.021Z,96838.63
2019-02-19T01:46:00.248Z,96833.61
2019-02-19T01:47:35.550Z,96835.47
2019-02-19T01:49:11.376Z,96831.78
2019-02-19T01:50:46.372Z,96838.17
2019-02-19T01:52:21.482Z,96836.61
2019-02-19T01:53:56.567Z,96838.41
2019-02-19T01:55:33.044Z,96835.16
2019-02-19T01:57:08.160Z,96833.13
2019-02-19T01:58:43.189Z,96833.50
2019-02-19T02:00:19.108Z,96832.81
2019-02-19T02:02:00.587Z,96830.54
2019-02-19T02:03:36.338Z,96828.61
2019-02-19T02:05:16.109Z,96829.69
2019-02-19T02:06:51.765Z,96824.49
2019-02-19T02:08:27.500Z,96822.73
2019-02-19T02:10:03.240Z,96826.19
2019-02-19T02:11:38.726Z,96831.02
2019-02-19T02:13:14.610Z,96820.06
2019-02-19T02:14:50.111Z,96825.75
2019-02-19T02:16:28.378Z,96829.84
2019-02-19T02:18:05.221Z,96822.39
2019-02-19T02:19:43.079Z,96827.62
2019-02-19T02:21:23.794Z,96820.91
2019-02-19T02:23:01.246Z,96825.23
2019-02-19T02:24:41.319Z,96823.72
2019-02-19T02:26:16.587Z,96830.17
2019-02-19T02:27:52.047Z,96826.30
2019-02-19T02:29:27.521Z,96828.05
2019-02-19T02:31:02.944Z,96829.23
2019-02-19T02:32:38.732Z,96831.15
2019-02-19T02:34:14.581Z,96827.75
2019-02-19T02:35:51.639Z,96832.16
2019-02-19T02:37:32.725Z,96830.45
2019-02-19T02:39:11.081Z,96834.34
2019-02-19T02:40:50.207Z,96833.79
2019-02-19T02:42:29.582Z,96831.53
2019-02-19T02:44:05.263Z,96833.62
2019-02-19T02:45:40.436Z,96830.78
2019-02-19T02:47:17.939Z,96828.66
2019-02-19T02:48:53.068Z,96829.92
2019-02-19T02:50:29.205Z,96827.41
2019-02-19T02:52:07.415Z,96829.62
2019-02-19T02:53:42.599Z,96835.84
2019-02-19T02:55:18.021Z,96830.02
2019-02-19T02:56:53.071Z,96833.70
2019-02-19T02:58:28.099Z,96835.72
2019-02-19T03:00:09.920Z,96835.98
2019-02-19T03:01:46.632Z,96830.13
2019-02-19T03:03:25.789Z,96831.66
2019-02-19T03:05:02.630Z,96835.88
2019-02-19T03:07:08.199Z,96837.11
2019-02-19T03:08:43.459Z,96835.65
2019-02-19T03:10:23.662Z,96834.34
2019-02-19T03:11:58.839Z,96834.16
2019-02-19T03:13:34.585Z,96835.70
2019-02-19T03:15:12.035Z,96828.05
2019-02-19T03:16:52.136Z,96835.33
2019-02-19T03:18:27.177Z,96826.14
2019-02-19T03:20:02.254Z,96833.06
2019-02-19T03:21:37.656Z,96830.75
2019-02-19T03:23:12.772Z,96838.08
2019-02-19T03:24:48.069Z,96832.39
2019-02-19T03:26:23.109Z,96838.95
2019-02-19T03:27:58.355Z,96842.55
2019-02-19T03:29:35.203Z,96844.84
2019-02-19T03:31:10.221Z,96838.84
2019-02-19T03:32:45.689Z,96843.38
2019-02-19T03:34:20.689Z,96840.30
2019-02-19T03:35:56.190Z,96844.77
2019-02-19T03:37:31.285Z,96845.29
2019-02-19T03:39:06.508Z,96842.05
2019-02-19T03:40:42.993Z,96840.42
2019-02-19T03:42:18.173Z,96843.28
2019-02-19T03:43:53.305Z,96854.59
2019-02-19T03:45:28.437Z,96851.42
2019-02-19T03:47:03.488Z,96854.24
2019-02-19T03:48:38.545Z,96849.52
2019-02-19T03:50:13.713Z,96849.67
2019-02-19T03:51:50.463Z,96852.94
2019-02-19T03:53:32.350Z,96852.34
2019-02-19T03:55:07.122Z,96847.84
2019-02-19T03:56:42.212Z,96852.45
2019-02-19T03:58:17.277Z,96853.33
2019-02-19T03:59:52.600Z,96856.66
2019-02-19T04:01:27.705Z,96864.57
2019-02-19T04:03:05.124Z,96866.66
2019-02-19T04:04:40.861Z,96869.55
2019-02-19T04:06:15.950Z,96862.88
2019-02-19T04:07:51.300Z,96867.49
2019-02-19T04:09:26.377Z,96862.66
2019-02-19T04:11:01.525Z,96865.33
2019-02-19T04:12:36.557Z,96872.51
2019-02-19T04:14:11.580Z,96876.13
2019-02-19T04:15:46.856Z,96874.88
2019-02-19T04:17:21.991Z,96877.95
2019-02-19T04:18:56.979Z,96881.84
2019-02-19T04:20:32.016Z,96883.78
2019-02-19T04:22:07.126Z,96891.34
2019-02-19T04:23:43.604Z,96876.82
2019-02-19T04:25:19.037Z,96884.55
2019-02-19T04:26:54.042Z,96883.60
2019-02-19T04:28:29.131Z,96884.59
2019-02-19T04:30:07.734Z,96892.73
2019-02-19T04:31:43.057Z,96891.97
2019-02-19T04:33:20.652Z,96891.56
2019-02-19T04:34:55.686Z,96893.68
2019-02-19T04:36:30.753Z,96888.26
2019-02-19T04:38:06.121Z,96903.00
2019-02-19T04:39:41.128Z,96905.38
2019-02-19T04:41:16.548Z,96903.17
2019-02-19T04:42:52.434Z,96904.02
2019-02-19T04:44:28.866Z,96904.42
2019-02-19T04:46:07.345Z,96910.06
2019-02-19T04:47:42.343Z,96908.08
2019-02-19T04:49:17.433Z,96908.71
2019-02-19T04:50:56.759Z,96915.34
2019-02-19T04:52:32.053Z,96919.20
2019-02-19T04:54:07.044Z,96919.82
2019-02-19T04:55:46.567Z,96925.25
2019-02-19T04:57:22.124Z,96928.36
2019-02-19T04:58:59.153Z,96933.67
2019-02-19T05:00:34.129Z,96929.02
2019-02-19T05:02:09.241Z,96933.52
2019-02-19T05:03:44.694Z,96932.94
2019-02-19T05:05:21.345Z,96937.00
2019-02-19T05:06:59.916Z,96942.06
2019-02-19T05:08:34.989Z,96949.20
2019-02-19T05:10:10.404Z,96953.89
2019-02-19T05:11:45.599Z,96954.08
2019-02-19T05:13:20.707Z,96963.62
2019-02-19T05:14:55.977Z,96963.27
2019-02-19T05:16:40.221Z,96968.31
2019-02-19T05:18:07.790Z,96973.37
2019-02-19T05:19:42.879Z,96973.77
2019-02-19T05:21:17.893Z,96974.53
2019-02-19T05:22:53.667Z,96990.09
2019-02-19T05:24:28.722Z,96981.59
2019-02-19T05:26:04.184Z,96989.54
2019-02-19T05:27:39.598Z,96998.28
2019-02-19T05:29:14.847Z,97005.06
2019-02-19T05:30:52.771Z,97011.25
2019-02-19T05:32:28.178Z,97019.01
2019-02-19T05:34:03.197Z,97018.64
2019-02-19T05:35:38.290Z,97021.34
2019-02-19T05:37:16.213Z,97024.45
2019-02-19T05:38:51.350Z,97027.78
2019-02-19T05:40:26.409Z,97028.77
2019-02-19T05:42:01.622Z,97031.08
2019-02-19T05:43:45.893Z,97029.88
2019-02-19T05:45:21.055Z,97044.66
2019-02-19T05:46:56.212Z,97042.16
2019-02-19T05:48:31.355Z,97053.78
2019-02-19T05:50:07.703Z,97052.25
2019-02-19T05:51:43.352Z,97056.12
2019-02-19T05:53:19.724Z,97061.78
2019-02-19T05:54:56.354Z,97071.08
2019-02-19T05:56:32.603Z,97081.33
2019-02-19T05:58:11.266Z,97079.60
2019-02-19T05:59:56.408Z,97086.35
2019-02-19T06:01:40.102Z,97089.22
2019-02-19T06:03:17.078Z,97089.06
2019-02-19T06:04:52.346Z,97089.64
2019-02-19T06:06:29.568Z,97094.83
2019-02-19T06:08:22.077Z,97099.47
2019-02-19T06:10:09.637Z,97104.89
2019-02-19T06:11:49.423Z,97115.20
2019-02-19T06:13:30.162Z,97118.48
2019-02-19T06:15:08.944Z,97120.23
2019-02-19T06:16:58.531Z,97123.86
2019-02-19T06:18:37.741Z,97124.28
2019-02-19T06:20:30.301Z,97118.86
2019-02-19T06:22:08.848Z,97115.38
2019-02-19T06:23:47.276Z,97126.56
2019-02-19T06:25:27.135Z,97130.47
2019-02-19T06:27:04.882Z,97131.97
2019-02-19T06:28:52.729Z,97129.84
2019-02-19T06:30:33.952Z,97132.55
2019-02-19T06:32:11.829Z,97135.28
2019-02-19T06:33:48.517Z,97141.66
2019-02-19T06:35:30.674Z,97140.70
2019-02-19T06:37:11.982Z,97149.44
2019-02-19T06:38:47.480Z,97151.19
2019-02-19T06:40:37.127Z,97144.41
2019-02-19T06:42:24.844Z,97147.47
2019-02-19T06:44:01.042Z,97143.59
2019-02-19T06:45:36.126Z,97150.37
2019-02-19T06:47:20.368Z,97155.25
2019-02-19T06:49:00.257Z,97143.41
2019-02-19T06:50:41.567Z,97150.37
2019-02-19T06:52:22.660Z,97152.49
2019-02-19T06:54:06.748Z,97158.50
2019-02-19T06:55:44.983Z,97164.11
2019-02-19T06:57:20.261Z,97166.80
2019-02-19T06:58:55.349Z,97173.40
2019-02-19T07:00:31.217Z,97177.84
2019-02-19T07:02:29.799Z,97177.89
2019-02-19T07:04:09.944Z,97185.24
2019-02-19T07:05:45.416Z,97196.85
2019-02-19T07:07:20.587Z,97202.08
2019-02-19T07:08:56.214Z,97210.21
2019-02-19T07:10:31.610Z,97209.78
2019-02-19T07:12:07.093Z,97216.36
2019-02-19T07:13:42.282Z,97217.33
2019-02-19T07:15:17.962Z,97222.41
2019-02-19T07:16:53.088Z,97222.94
2019-02-19T07:18:28.270Z,97228.94
2019-02-19T07:20:19.382Z,97235.91
2019-02-19T07:22:07.415Z,97240.74
2019-02-19T07:23:45.105Z,97242.87
2019-02-19T07:25:20.213Z,97247.69
2019-02-19T07:27:01.076Z,97232.98
2019-02-19T07:28:42.301Z,97244.39
2019-02-19T07:30:18.163Z,97250.97
2019-02-19T07:31:59.929Z,97260.27
2019-02-19T07:33:38.034Z,97269.56
2019-02-19T07:35:14.346Z,97272.65
2019-02-19T07:36:49.982Z,97284.45
2019-02-19T07:38:25.537Z,97294.52
2019-02-19T07:40:01.803Z,97295.31
2019-02-19T07:41:43.826Z,97299.00
2019-02-19T07:43:25.813Z,97303.44
2019-02-19T07:45:05.586Z,97305.96
2019-02-19T07:46:42.597Z,97313.32
2019-02-19T07:48:20.029Z,97306.73
2019-02-19T07:49:56.084Z,97311.77
2019-02-19T07:51:35.404Z,97318.14
2019-02-19T07:53:10.663Z,97312.55
2019-02-19T07:54:47.238Z,97317.58
2019-02-19T07:56:23.068Z,97326.86
2019-02-19T07:58:00.055Z,97322.61
2019-02-19T07:59:35.680Z,97325.30
2019-02-19T08:01:10.916Z,97330.14
2019-02-19T08:02:56.037Z,97331.30
2019-02-19T08:04:37.013Z,97329.94
2019-02-19T08:06:12.704Z,97334.93
2019-02-19T08:07:47.946Z,97333.77
2019-02-19T08:09:23.335Z,97335.50
2019-02-19T08:11:01.622Z,97334.53
2019-02-19T08:12:41.196Z,97333.32
2019-02-19T08:14:22.061Z,97331.77
2019-02-19T08:15:58.046Z,97325.17
2019-02-19T08:17:36.394Z,97322.09
2019-02-19T08:19:11.630Z,97332.33
2019-02-19T08:20:50.718Z,97329.95
2019-02-19T08:22:32.783Z,97323.56
2019-02-19T08:24:08.366Z,97323.94
2019-02-19T08:25:48.193Z,97317.55
2019-02-19T08:27:26.690Z,97320.64
2019-02-19T08:29:13.054Z,97320.82
2019-02-19T08:30:38.990Z,97315.02
2019-02-19T08:32:15.468Z,97304.77
2019-02-19T08:33:53.153Z,97303.98
2019-02-19T08:35:32.142Z,97309.80
2019-02-19T08:37:07.292Z,97303.98
2019-02-19T08:38:43.097Z,97301.27
2019-02-19T08:40:21.172Z,97300.31
2019-02-19T08:41:58.604Z,97303.01
2019-02-19T08:43:35.418Z,97296.38
2019-02-19T08:45:15.575Z,97297.13
2019-02-19T08:47:09.156Z,97296.21
2019-02-19T08:48:44.818Z,97288.42
2019-02-19T08:50:22.624Z,97281.25
2019-02-19T08:51:57.672Z,97279.50
2019-02-19T08:53:36.898Z,97280.63
2019-02-19T08:55:15.795Z,97279.41
2019-02-19T08:56:58.159Z,97281.00
2019-02-19T08:58:33.435Z,97272.05
2019-02-19T09:00:09.406Z,97270.69
2019-02-19T09:01:44.734Z,97271.65
2019-02-19T09:03:24.814Z,97267.93
2019-02-19T09:05:02.610Z,97266.02
2019-02-19T09:06:44.199Z,97259.63
2019-02-19T09:08:20.682Z,97249.13
2019-02-19T09:09:57.949Z,97256.05
2019-02-19T09:11:37.206Z,97256.55
2019-02-19T09:13:16.667Z,97252.27
2019-02-19T09:14:55.661Z,97254.60
2019-02-19T09:16:31.038Z,97248.97
2019-02-19T09:18:06.362Z,97247.05
2019-02-19T09:19:44.841Z,97243.94
2019-02-19T09:21:22.394Z,97240.22
2019-02-19T09:22:57.797Z,97235.41
2019-02-19T09:24:34.611Z,97222.03
2019-02-19T09:26:10.014Z,97225.30
2019-02-19T09:27:49.756Z,97222.22
2019-02-19T09:29:27.538Z,97218.33
2019-02-19T09:31:02.740Z,97218.33
2019-02-19T09:32:37.933Z,97215.94
2019-02-19T09:34:14.067Z,97217.67
2019-02-19T09:35:49.566Z,97213.86
2019-02-19T09:37:26.807Z,97213.09
2019-02-19T09:39:02.004Z,97208.97
2019-02-19T09:40:41.842Z,97216.26
2019-02-19T09:42:17.128Z,97208.89
2019-02-19T09:43:52.553Z,97207.34
2019-02-19T09:45:32.038Z,97205.94
2019-02-19T09:47:12.553Z,97206.42
2019-02-19T09:48:48.316Z,97200.24
2019-02-19T09:50:24.140Z,97204.84
2019-02-19T09:52:00.504Z,97199.70
2019-02-19T09:53:37.852Z,97198.72
2019-02-19T09:55:17.203Z,97202.30
2019-02-19T09:56:55.985Z,97198.02
2019-02-19T09:58:31.106Z,97198.27
2019-02-19T10:00:12.980Z,97194.41
2019-02-19T10:01:51.063Z,97186.38
2019-02-19T10:03:26.167Z,97185.09
2019-02-19T10:05:01.184Z,97199.95
2019-02-19T10:06:38.970Z,97197.33
2019-02-19T10:08:14.729Z,97188.20
2019-02-19T10:09:53.692Z,97189.18
2019-02-19T10:11:31.311Z,97194.84
2019-02-19T10:13:06.411Z,97191.98
2019-02-19T10:14:41.744Z,97182.81
2019-02-19T10:16:22.805Z,97183.58
2019-02-19T10:17:56.822Z,97182.52
2019-02-19T10:19:35.111Z,97176.84
2019-02-19T10:21:13.493Z,97172.77
2019-02-19T10:22:49.870Z,97170.84
2019-02-19T10:24:28.114Z,97169.27
2019-02-19T10:26:07.286Z,97166.81
2019-02-19T10:27:48.279Z,97171.91
2019-02-19T10:29:23.472Z,97178.81
2019-02-19T10:31:00.203Z,97176.37
2019-02-19T10:32:37.847Z,97172.64
2019-02-19T10:34:12.511Z,97159.70
2019-02-19T10:35:47.622Z,97163.64
2019-02-19T10:37:22.776Z,97157.36
2019-02-19T10:39:01.599Z,97155.27
2019-02-19T10:40:40.269Z,97157.00
2019-02-19T10:42:21.967Z,97150.57
2019-02-19T10:44:02.450Z,97158.05
2019-02-19T10:45:40.720Z,97153.44
2019-02-19T10:47:15.876Z,97149.37
2019-02-19T10:48:56.253Z,97147.42
2019-02-19T10:50:34.610Z,97141.46
2019-02-19T10:52:11.224Z,97145.92
2019-02-19T10:53:46.472Z,97140.39
2019-02-19T10:55:25.749Z,97141.55
2019-02-19T10:57:06.887Z,97128.59
2019-02-19T10:58:53.873Z,97133.16
2019-02-19T11:00:44.880Z,97137.44
2019-02-19T11:02:36.919Z,97135.36
2019-02-19T11:04:14.241Z,97143.83
2019-02-19T11:05:55.240Z,97144.38
2019-02-19T11:07:35.812Z,97132.55
2019-02-19T11:09:14.211Z,97137.79
2019-02-19T11:10:51.396Z,97141.66
2019-02-19T11:12:30.374Z,97131.52
2019-02-19T11:14:05.534Z,97122.27
2019-02-19T11:15:40.558Z,97128.64
2019-02-19T11:17:19.987Z,97127.66
2019-02-19T11:18:55.103Z,97123.25
2019-02-19T11:20:30.410Z,97120.24
2019-02-19T11:22:06.023Z,97115.72
2019-02-19T11:23:52.886Z,97113.05
2019-02-19T11:25:28.860Z,97116.40
2019-02-19T11:27:24.740Z,97104.39
2019-02-19T11:29:14.715Z,97105.95
2019-02-19T11:30:52.680Z,97113.52
2019-02-19T11:32:47.077Z,97102.17
2019-02-19T11:34:30.714Z,97110.84
2019-02-19T11:36:26.728Z,97111.48
2019-02-19T11:38:05.427Z,97104.02
2019-02-19T11:39:45.363Z,97094.75
2019-02-19T11:41:22.866Z,97090.55
2019-02-19T11:42:59.180Z,97091.62
2019-02-19T11:44:38.899Z,97086.60
2019-02-19T11:46:19.068Z,97077.56
2019-02-19T11:47:54.370Z,97076.96
2019-02-19T11:49:32.068Z,97062.28
2019-02-19T11:51:15.591Z,97063.14
2019-02-19T11:52:56.237Z,97069.11
2019-02-19T11:54:42.192Z,97056.86
2019-02-19T11:56:27.994Z,97056.00
2019-02-19T11:58:06.837Z,97058.30
2019-02-19T11:59:47.718Z,97055.63
2019-02-19T12:01:24.240Z,97053.53
2019-02-19T12:03:03.389Z,97058.11
2019-02-19T12:04:50.400Z,97057.78
2019-02-19T12:06:28.662Z,97058.81
2019-02-19T12:08:07.661Z,97065.95
2019-02-19T12:10:01.375Z,97069.34
2019-02-19T12:11:39.460Z,97070.24
2019-02-19T12:13:16.111Z,97064.02
2019-02-19T12:14:59.195Z,97082.85
2019-02-19T12:16:40.425Z,97077.70
2019-02-19T12:18:20.278Z,97083.08
2019-02-19T12:20:03.686Z,97079.28
2019-02-19T12:21:39.718Z,97087.30
2019-02-19T12:23:18.980Z,97076.75
2019-02-19T12:24:54.855Z,97078.34
2019-02-19T12:26:31.233Z,97078.58
2019-02-19T12:28:06.921Z,97067.37
2019-02-19T12:29:54.999Z,97073.80
2019-02-19T12:31:33.334Z,97077.34
2019-02-19T12:33:11.549Z,97071.73
2019-02-19T12:34:54.343Z,97069.16
2019-02-19T12:36:35.790Z,97066.05
2019-02-19T12:38:31.309Z,97065.55
2019-02-19T12:40:20.244Z,97064.78
2019-02-19T12:41:54.803Z,97064.69
2019-02-19T12:43:34.855Z,97069.36
2019-02-19T12:45:17.414Z,97068.52
2019-02-19T12:46:54.098Z,97049.34
2019-02-19T12:48:29.899Z,97064.52
2019-02-19T12:50:17.272Z,97053.19
2019-02-19T12:51:55.649Z,97061.19
2019-02-19T12:53:30.726Z,97066.37
2019-02-19T12:55:06.089Z,97053.70
2019-02-19T12:56:46.968Z,97068.09
2019-02-19T12:58:24.853Z,97064.44
2019-02-19T13:00:08.262Z,97059.92
2019-02-19T13:01:50.248Z,97068.84
2019-02-19T13:03:24.688Z,97060.61
2019-02-19T13:05:04.625Z,97064.27
2019-02-19T13:06:42.917Z,97062.48
2019-02-19T13:08:30.008Z,97064.17
2019-02-19T13:10:06.981Z,97054.09
2019-02-19T13:11:48.599Z,97053.58
2019-02-19T13:13:37.620Z,97059.41
2019-02-19T13:15:18.912Z,97057.64
2019-02-19T13:16:59.755Z,97063.52
2019-02-19T13:18:40.155Z,97064.77
2019-02-19T13:20:17.110Z,97061.08
2019-02-19T13:21:55.197Z,97067.66
2019-02-19T13:23:34.374Z,97081.48
2019-02-19T13:25:14.596Z,97077.38
2019-02-19T13:26:49.832Z,97087.50
2019-02-19T13:28:26.068Z,97089.83
2019-02-19T13:30:14.412Z,97093.66
2019-02-19T13:31:51.618Z,97093.79
2019-02-19T13:33:30.094Z,97095.97
2019-02-19T13:35:10.067Z,97103.73
2019-02-19T13:36:55.090Z,97098.47
2019-02-19T13:38:39.427Z,97088.13
2019-02-19T13:40:28.546Z,97086.00
2019-02-19T13:42:04.127Z,97082.25
2019-02-19T13:43:45.761Z,97086.69
2019-02-19T13:45:21.412Z,97082.80
2019-02-19T13:46:58.535Z,97094.93
2019-02-19T13:48:38.775Z,97095.17
2019-02-19T13:50:25.834Z,97095.88
2019-02-19T13:52:22.411Z,97095.66
2019-02-19T13:54:12.813Z,97098.05
2019-02-19T13:55:55.554Z,97099.31
2019-02-19T13:57:51.395Z,97100.45
2019-02-19T13:59:19.231Z,97101.08
2019-02-19T14:01:27.399Z,97093.32
2019-02-19T14:03:10.498Z,97092.73
2019-02-19T14:04:56.014Z,97086.88
2019-02-19T14:06:40.129Z,97092.28
2019-02-19T14:08:23.211Z,97091.02
2019-02-19T14:10:00.636Z,97092.84
2019-02-19T14:11:38.127Z,97090.41
2019-02-19T14:13:17.748Z,97086.22
2019-02-19T14:14:59.616Z,97082.20
2019-02-19T14:17:08.137Z,97086.63
2019-02-19T14:18:52.483Z,97088.38
2019-02-19T14:20:50.101Z,97092.70
2019-02-19T14:22:53.144Z,97087.33
2019-02-19T14:25:01.513Z,97094.73
2019-02-19T14:27:18.229Z,97100.78
2019-02-19T14:29:35.307Z,97095.58
2019-02-19T14:31:43.498Z,97105.90
2019-02-19T14:33:49.403Z,97112.74
2019-02-19T14:35:58.555Z,97120.71
2019-02-19T14:38:07.586Z,97123.20
2019-02-19T14:40:09.991Z,97121.88
2019-02-19T14:42:24.867Z,97124.98
2019-02-19T14:44:38.694Z,97125.95
2019-02-19T14:46:57.218Z,97120.50
2019-02-19T14:48:59.199Z,97127.30
2019-02-19T14:50:56.665Z,97124.17
2019-02-19T14:53:03.772Z,97125.39
2019-02-19T14:55:03.880Z,97125.51
2019-02-19T14:56:58.397Z,97127.58
2019-02-19T14:58:58.990Z,97119.16
2019-02-19T15:01:09.177Z,97119.59
2019-02-19T15:03:18.251Z,97118.23
2019-02-19T15:05:27.425Z,97122.41
2019-02-19T15:07:26.385Z,97112.34
2019-02-19T15:09:24.451Z,97113.30
2019-02-19T15:11:16.881Z,97102.41
2019-02-19T15:13:06.226Z,97107.73
2019-02-19T15:15:22.046Z,97107.81
2019-02-19T15:17:17.512Z,97108.50
2019-02-19T15:19:09.649Z,97112.87
2019-02-19T15:21:11.992Z,97109.74
2019-02-19T15:23:06.251Z,97110.75
2019-02-19T15:24:56.399Z,97115.52
2019-02-19T15:26:54.597Z,97115.39
2019-02-19T15:28:54.094Z,97116.05
2019-02-19T15:31:03.455Z,97121.63
2019-02-19T15:32:58.225Z,97117.38
2019-02-19T15:35:11.422Z,97123.76
2019-02-19T15:37:00.485Z,97122.81
2019-02-19T15:38:58.454Z,97125.89
2019-02-19T15:40:42.274Z,97129.88
2019-02-19T15:42:40.796Z,97119.00
2019-02-19T15:44:51.538Z,97127.64
2019-02-19T15:46:45.826Z,97126.40
2019-02-19T15:48:52.835Z,97127.76
2019-02-19T15:50:56.467Z,97127.64
2019-02-19T15:52:48.625Z,97132.20
2019-02-19T15:54:43.557Z,97125.63
2019-02-19T15:56:53.420Z,97126.84
2019-02-19T15:58:53.404Z,97136.59
2019-02-19T16:01:08.683Z,97138.25
2019-02-19T16:03:09.666Z,97133.16
2019-02-19T16:04:59.336Z,97141.68
2019-02-19T16:07:09.181Z,97140.97
2019-02-19T16:09:17.867Z,97138.97
2019-02-19T16:11:14.704Z,97132.28
2019-02-19T16:13:11.957Z,97149.09
2019-02-19T16:15:20.415Z,97149.33
2019-02-19T16:17:18.122Z,97148.02
2019-02-19T16:19:02.525Z,97154.58
2019-02-19T16:21:02.951Z,97153.27
2019-02-19T16:22:54.773Z,97149.27
2019-02-19T16:24:55.045Z,97156.94
2019-02-19T16:26:48.041Z,97155.70
2019-02-19T16:28:45.992Z,97153.22
2019-02-19T16:30:53.705Z,97165.31
2019-02-19T16:32:40.737Z,97164.95
2019-02-19T16:34:33.986Z,97159.27
2019-02-19T16:36:35.736Z,97166.25
2019-02-19T16:38:36.230Z,97163.98
2019-02-19T16:40:31.194Z,97167.73
2019-02-19T16:42:40.053Z,97168.92
2019-02-19T16:44:45.632Z,97168.33
2019-02-19T16:46:35.933Z,97176.30
2019-02-19T16:48:33.601Z,97181.97
2019-02-19T16:50:46.278Z,97176.53
2019-02-19T16:52:45.127Z,97179.03
2019-02-19T16:55:04.168Z,97176.89
2019-02-19T16:56:46.353Z,97176.68
2019-02-19T16:58:36.534Z,97172.42
2019-02-19T17:00:33.690Z,97179.62
2019-02-19T17:02:42.982Z,97177.56
2019-02-19T17:04:48.043Z,97181.67
2019-02-19T17:06:48.933Z,97184.94
2019-02-19T17:08:50.321Z,97186.73
2019-02-19T17:10:35.577Z,97191.80
2019-02-19T17:12:36.709Z,97193.70
2019-02-19T17:14:33.270Z,97189.37
2019-02-19T17:16:44.197Z,97185.59
2019-02-19T17:18:55.129Z,97193.59
2019-02-19T17:39:25.353Z,97205.19
2019-02-19T17:42:23.472Z,97204.42
2019-02-19T17:44:16.798Z,97213.67
2019-02-19T17:47:02.286Z,97224.48
2019-02-19T17:49:53.195Z,97220.31
2019-02-19T17:52:00.819Z,97222.72
2019-02-19T17:54:25.778Z,97225.50
2019-02-19T17:57:09.578Z,97234.66
2019-02-19T17:59:17.427Z,97233.73
2019-02-19T18:01:16.320Z,97238.94
2019-02-19T18:06:45.389Z,97240.02
2019-02-19T18:09:04.245Z,97237.70
2019-02-19T18:12:43.363Z,97235.57
2019-02-19T18:14:07.019Z,97246.63
2019-02-19T18:16:09.453Z,97243.05
2019-02-19T18:19:08.161Z,97244.98
2019-02-19T18:26:19.103Z,97254.97
2019-02-19T18:28:49.130Z,97253.45
2019-02-19T18:30:49.682Z,97257.59
2019-02-19T18:33:55.146Z,97264.84
2019-02-19T18:36:01.128Z,97262.35
2019-02-19T18:38:13.215Z,97267.08
2019-02-19T18:40:12.143Z,97269.00
2019-02-19T18:43:02.164Z,97271.15
2019-02-19T18:45:22.139Z,97263.96
2019-02-19T18:47:18.267Z,97270.55
2019-02-19T18:49:31.730Z,97271.45
2019-02-19T18:51:21.478Z,97273.41
2019-02-19T18:53:26.936Z,97272.28
2019-02-19T18:55:52.416Z,97273.01
2019-02-19T18:58:23.690Z,97272.22
2019-02-19T19:00:49.322Z,97268.55
2019-02-19T19:05:45.551Z,97261.08
2019-02-19T19:07:32.663Z,97273.86
2019-02-19T19:10:04.224Z,97269.86
2019-02-19T19:12:38.523Z,97267.93
2019-02-19T19:17:17.669Z,97274.92
2019-02-19T19:19:09.445Z,97274.53
2019-02-19T19:23:43.333Z,97279.97
2019-02-19T19:28:25.315Z,97291.30
2019-02-19T19:30:33.740Z,97291.30
2019-02-19T19:32:20.356Z,97288.42
2019-02-19T19:34:24.044Z,97289.81
2019-02-19T19:36:05.940Z,97296.80
2019-02-19T19:38:10.207Z,97297.80
2019-02-19T19:39:59.042Z,97295.49
2019-02-19T19:41:44.270Z,97297.63
2019-02-19T19:43:39.358Z,97301.72
2019-02-19T19:45:29.276Z,97299.20
2019-02-19T19:47:09.404Z,97306.86
2019-02-19T19:49:01.412Z,97305.93
2019-02-19T19:51:19.147Z,97309.38
2019-02-19T19:53:09.385Z,97305.16
2019-02-19T19:55:24.047Z,97310.14
2019-02-19T19:57:12.506Z,97308.79
2019-02-19T19:59:20.327Z,97313.62
2019-02-19T20:00:48.172Z,97308.59
2019-02-19T20:02:31.151Z,97309.75
2019-02-19T20:04:11.086Z,97316.91
2019-02-19T20:05:50.078Z,97314.40
2019-02-19T20:07:59.917Z,97310.92
2019-02-19T20:09:43.782Z,97309.61
2019-02-19T20:11:57.034Z,97304.98
2019-02-19T20:13:52.043Z,97306.95
2019-02-19T20:15:48.384Z,97307.88
2019-02-19T20:17:21.059Z,97310.58
2019-02-19T20:19:02.268Z,97303.23
2019-02-19T20:21:05.802Z,97308.25
2019-02-19T20:23:12.912Z,97310.19
2019-02-19T20:25:13.766Z,97304.20
2019-02-19T20:27:11.650Z,97309.07
2019-02-19T20:29:08.682Z,97310.05
2019-02-19T20:30:56.760Z,97320.91
2019-02-19T20:32:34.750Z,97321.30
2019-02-19T20:34:19.939Z,97318.62
2019-02-19T20:36:01.025Z,97319.20
2019-02-19T20:37:55.372Z,97315.33
2019-02-19T20:39:31.094Z,97321.73
2019-02-19T20:41:24.564Z,97321.17
2019-02-19T20:43:03.366Z,97323.50
2019-02-19T20:44:39.457Z,97327.74
2019-02-19T20:46:17.438Z,97331.81
2019-02-19T20:48:12.100Z,97331.81
2019-02-19T20:49:50.428Z,97330.45
2019-02-19T20:51:48.236Z,97334.72
2019-02-19T20:53:24.080Z,97333.55
2019-02-19T20:55:14.963Z,97334.72
2019-02-19T20:56:58.105Z,97336.25
2019-02-19T20:59:02.980Z,97332.00
2019-02-19T21:00:49.033Z,97338.58
2019-02-19T21:02:51.266Z,97342.42
2019-02-19T21:04:47.749Z,97341.46